createdAt,value
2019-02-06T00:00:56.479Z,57.69
2019-02-06T00:03:26.047Z,58.22
2019-02-06T00:05:55.638Z,58.33
2019-02-06T00:08:25.297Z,58.37
2019-02-06T00:10:54.891Z,58.48
2019-02-06T00:13:24.430Z,58.34
2019-02-06T00:15:54.636Z,58.44
2019-02-06T00:18:24.204Z,58.36
2019-02-06T00:20:53.841Z,58.42
2019-02-06T00:23:23.303Z,58.43
2019-02-06T00:25:52.844Z,58.54
2019-02-06T00:28:22.398Z,58.69
2019-02-06T00:30:52.306Z,58.76
2019-02-06T00:33:21.820Z,58.71
2019-02-06T00:35:51.396Z,58.73
2019-02-06T00:38:20.906Z,58.78
2019-02-06T00:40:50.719Z,58.79
2019-02-06T00:43:20.271Z,59.02
2019-02-06T00:45:49.867Z,59.08
2019-02-06T00:48:19.541Z,59.16
2019-02-06T00:50:49.220Z,59.13
2019-02-06T00:53:18.796Z,59.23
2019-02-06T00:55:48.412Z,59.19
2019-02-06T00:58:17.910Z,59.17
2019-02-06T01:00:47.446Z,59.22
2019-02-06T01:03:16.909Z,59.35
2019-02-06T01:05:46.471Z,59.41
2019-02-06T01:08:15.992Z,59.42
2019-02-06T01:10:45.599Z,59.49
2019-02-06T01:13:15.118Z,59.59
2019-02-06T01:15:44.770Z,59.63
2019-02-06T01:18:14.355Z,59.76
2019-02-06T01:20:44.006Z,59.80
2019-02-06T01:23:16.132Z,59.93
2019-02-06T01:25:44.714Z,59.95
2019-02-06T01:28:14.258Z,59.85
2019-02-06T01:30:49.220Z,59.94
2019-02-06T01:33:18.754Z,59.88
2019-02-06T01:35:50.260Z,59.98
2019-02-06T01:38:19.547Z,60.00
2019-02-06T01:40:49.107Z,60.00
2019-02-06T01:43:19.110Z,60.01
2019-02-06T01:45:48.714Z,60.04
2019-02-06T01:48:18.270Z,59.84
2019-02-06T01:50:47.724Z,59.99
2019-02-06T01:53:17.339Z,59.94
2019-02-06T01:55:46.868Z,60.21
2019-02-06T01:58:16.519Z,60.28
2019-02-06T02:00:46.055Z,60.10
2019-02-06T02:03:15.628Z,60.13
2019-02-06T02:05:45.222Z,60.25
2019-02-06T02:08:14.855Z,60.51
2019-02-06T02:10:44.418Z,60.60
2019-02-06T02:13:14.198Z,60.59
2019-02-06T02:15:43.706Z,60.64
2019-02-06T02:18:13.319Z,60.54
2019-02-06T02:20:42.938Z,60.50
2019-02-06T02:23:12.467Z,60.81
2019-02-06T02:25:41.944Z,60.88
2019-02-06T02:28:11.520Z,60.91
2019-02-06T02:30:44.822Z,60.70
2019-02-06T02:33:14.485Z,60.75
2019-02-06T02:35:44.056Z,60.67
2019-02-06T02:38:13.598Z,60.89
2019-02-06T02:40:43.217Z,61.01
2019-02-06T02:43:13.049Z,61.00
2019-02-06T02:45:42.600Z,60.96
2019-02-06T02:48:12.147Z,60.81
2019-02-06T02:50:41.633Z,60.90
2019-02-06T02:53:11.155Z,61.14
2019-02-06T02:55:40.848Z,61.20
2019-02-06T02:58:10.678Z,61.58
2019-02-06T03:00:54.157Z,61.73
2019-02-06T03:03:45.359Z,61.94
2019-02-06T03:06:27.201Z,62.11
2019-02-06T03:08:46.190Z,61.87
2019-02-06T03:11:15.776Z,61.42
2019-02-06T03:13:45.617Z,61.51
2019-02-06T03:16:15.064Z,61.72
2019-02-06T03:18:44.747Z,61.93
2019-02-06T03:21:15.753Z,62.24
2019-02-06T03:23:45.339Z,62.00
2019-02-06T03:26:15.034Z,61.57
2019-02-06T03:28:44.626Z,61.37
2019-02-06T03:31:14.217Z,61.52
2019-02-06T03:33:43.873Z,61.36
2019-02-06T03:36:13.420Z,61.44
2019-02-06T03:38:42.972Z,61.58
2019-02-06T03:41:12.524Z,61.41
2019-02-06T03:43:42.192Z,61.51
2019-02-06T03:46:12.171Z,61.43
2019-02-06T03:48:41.802Z,61.32
2019-02-06T03:51:11.383Z,61.09
2019-02-06T03:53:40.933Z,60.99
2019-02-06T03:56:10.508Z,60.87
2019-02-06T03:58:40.108Z,61.23
2019-02-06T04:01:11.551Z,61.37
2019-02-06T04:03:41.004Z,61.25
2019-02-06T04:06:10.644Z,61.32
2019-02-06T04:08:40.223Z,61.23
2019-02-06T04:11:09.873Z,61.82
2019-02-06T04:13:39.409Z,62.00
2019-02-06T04:16:08.960Z,62.11
2019-02-06T04:18:38.533Z,61.29
2019-02-06T04:21:08.093Z,61.64
2019-02-06T04:23:37.550Z,61.74
2019-02-06T04:26:07.096Z,61.93
2019-02-06T04:28:36.662Z,61.84
2019-02-06T04:31:06.203Z,61.59
2019-02-06T04:33:36.070Z,61.48
2019-02-06T04:36:05.634Z,61.57
2019-02-06T04:38:35.257Z,61.51
2019-02-06T04:41:04.842Z,63.29
2019-02-06T04:43:34.495Z,65.03
2019-02-06T04:46:04.067Z,66.22
2019-02-06T04:48:33.900Z,65.84
2019-02-06T04:51:03.481Z,66.59
2019-02-06T04:53:33.038Z,67.16
2019-02-06T04:56:02.580Z,67.54
2019-02-06T04:58:32.054Z,68.12
2019-02-06T05:01:01.603Z,68.00
2019-02-06T05:03:31.454Z,67.89
2019-02-06T05:06:01.147Z,67.94
2019-02-06T05:08:30.704Z,68.28
2019-02-06T05:11:00.369Z,67.76
2019-02-06T05:13:30.016Z,67.65
2019-02-06T05:15:59.563Z,66.95
2019-02-06T05:18:29.102Z,66.76
2019-02-06T05:20:58.656Z,66.53
2019-02-06T05:23:28.148Z,65.95
2019-02-06T05:25:57.855Z,65.31
2019-02-06T05:28:27.513Z,64.94
2019-02-06T05:30:57.066Z,64.89
2019-02-06T05:33:26.949Z,64.33
2019-02-06T05:35:56.643Z,63.95
2019-02-06T05:38:26.275Z,64.02
2019-02-06T05:40:55.798Z,63.59
2019-02-06T05:43:25.556Z,63.56
2019-02-06T05:45:55.139Z,63.35
2019-02-06T05:48:24.661Z,63.19
2019-02-06T05:50:54.329Z,63.36
2019-02-06T05:53:23.927Z,63.41
2019-02-06T05:55:53.445Z,63.14
2019-02-06T05:58:23.229Z,62.31
2019-02-06T06:00:52.923Z,62.26
2019-02-06T06:03:22.721Z,62.37
2019-02-06T06:05:52.594Z,63.06
2019-02-06T06:08:22.124Z,64.16
2019-02-06T06:10:51.722Z,64.79
2019-02-06T06:13:21.277Z,65.98
2019-02-06T06:15:50.812Z,65.75
2019-02-06T06:18:21.991Z,65.72
2019-02-06T06:20:51.670Z,66.25
2019-02-06T06:23:21.230Z,66.80
2019-02-06T06:25:50.766Z,66.85
2019-02-06T06:28:20.366Z,66.57
2019-02-06T06:30:49.900Z,66.63
2019-02-06T06:33:19.440Z,66.74
2019-02-06T06:35:48.925Z,66.29
2019-02-06T06:38:18.590Z,65.97
2019-02-06T06:40:48.130Z,65.59
2019-02-06T06:43:17.758Z,65.13
2019-02-06T06:45:47.357Z,65.02
2019-02-06T06:48:17.080Z,64.84
2019-02-06T06:50:46.962Z,64.23
2019-02-06T06:53:16.523Z,63.74
2019-02-06T06:55:46.082Z,62.97
2019-02-06T06:58:15.740Z,63.02
2019-02-06T07:00:45.326Z,63.62
2019-02-06T07:03:14.970Z,63.89
2019-02-06T07:05:44.797Z,64.05
2019-02-06T07:08:14.370Z,63.91
2019-02-06T07:10:43.901Z,63.44
2019-02-06T07:13:13.479Z,63.19
2019-02-06T07:15:42.936Z,63.19
2019-02-06T07:18:12.607Z,64.20
2019-02-06T07:20:42.570Z,65.44
2019-02-06T07:23:12.148Z,66.29
2019-02-06T07:25:41.682Z,66.01
2019-02-06T07:28:11.353Z,64.95
2019-02-06T07:30:40.899Z,64.34
2019-02-06T07:33:10.453Z,63.72
2019-02-06T07:35:40.232Z,62.96
2019-02-06T07:38:22.316Z,62.57
2019-02-06T07:40:41.068Z,62.27
2019-02-06T07:43:10.575Z,61.80
2019-02-06T07:45:40.224Z,61.10
2019-02-06T07:48:09.981Z,61.55
2019-02-06T07:50:40.055Z,62.13
2019-02-06T07:53:09.607Z,64.11
2019-02-06T07:55:39.170Z,65.25
2019-02-06T07:58:08.805Z,65.09
2019-02-06T08:00:38.453Z,64.36
2019-02-06T08:03:08.222Z,64.16
2019-02-06T08:05:38.153Z,62.98
2019-02-06T08:08:07.783Z,62.31
2019-02-06T08:10:37.210Z,62.00
2019-02-06T08:13:06.857Z,61.57
2019-02-06T08:15:36.469Z,61.12
2019-02-06T08:18:06.480Z,60.60
2019-02-06T08:20:36.160Z,61.49
2019-02-06T08:23:05.517Z,63.70
2019-02-06T08:25:34.971Z,66.70
2019-02-06T08:28:04.458Z,67.24
2019-02-06T08:30:39.130Z,65.08
2019-02-06T08:33:08.641Z,67.21
2019-02-06T08:35:39.573Z,68.52
2019-02-06T08:38:09.214Z,68.59
2019-02-06T08:40:38.883Z,66.15
2019-02-06T08:43:08.514Z,63.90
2019-02-06T08:45:38.271Z,62.25
2019-02-06T08:48:08.410Z,61.16
2019-02-06T08:50:38.339Z,60.36
2019-02-06T08:53:08.278Z,60.33
2019-02-06T08:55:38.042Z,60.92
2019-02-06T08:58:07.769Z,63.19
2019-02-06T09:00:38.719Z,62.11
2019-02-06T09:03:10.221Z,62.11
2019-02-06T09:05:39.769Z,63.77
2019-02-06T09:08:09.393Z,63.78
2019-02-06T09:10:39.473Z,62.35
2019-02-06T09:13:09.172Z,63.72
2019-02-06T09:15:38.812Z,67.92
2019-02-06T09:18:08.667Z,68.13
2019-02-06T09:20:38.535Z,69.55
2019-02-06T09:23:08.287Z,70.34
2019-02-06T09:25:37.869Z,70.98
2019-02-06T09:28:07.431Z,70.30
2019-02-06T09:30:37.193Z,70.44
2019-02-06T09:33:07.232Z,70.16
2019-02-06T09:35:37.298Z,68.91
2019-02-06T09:38:06.962Z,68.71
2019-02-06T09:40:36.630Z,68.09
2019-02-06T09:43:06.293Z,68.09
2019-02-06T09:45:35.957Z,68.90
2019-02-06T09:48:05.847Z,66.95
2019-02-06T09:50:37.401Z,66.66
2019-02-06T09:53:07.078Z,68.61
2019-02-06T09:55:37.442Z,68.13
2019-02-06T09:58:07.263Z,64.32
2019-02-06T10:00:38.146Z,61.36
2019-02-06T10:03:08.124Z,63.99
2019-02-06T10:05:37.775Z,69.15
2019-02-06T10:08:07.314Z,71.89
2019-02-06T10:10:37.063Z,70.22
2019-02-06T10:13:06.853Z,68.61
2019-02-06T10:15:37.845Z,69.82
2019-02-06T10:18:07.908Z,69.52
2019-02-06T10:20:40.178Z,73.88
2019-02-06T10:23:10.002Z,74.79
2019-02-06T10:25:39.646Z,72.90
2019-02-06T10:28:09.448Z,72.25
2019-02-06T10:30:42.116Z,71.70
2019-02-06T10:33:11.888Z,74.77
2019-02-06T10:35:41.578Z,77.52
2019-02-06T10:38:11.441Z,77.31
2019-02-06T10:40:41.296Z,74.85
2019-02-06T10:43:10.948Z,74.26
2019-02-06T10:45:40.931Z,75.56
2019-02-06T10:48:10.948Z,76.52
2019-02-06T10:50:45.936Z,77.88
2019-02-06T10:53:15.642Z,78.00
2019-02-06T10:55:45.201Z,78.14
2019-02-06T10:58:14.835Z,77.00
2019-02-06T11:00:50.151Z,76.55
2019-02-06T11:03:19.901Z,73.12
2019-02-06T11:05:49.718Z,70.75
2019-02-06T11:08:19.315Z,69.81
2019-02-06T11:10:48.853Z,70.96
2019-02-06T11:13:18.822Z,72.70
2019-02-06T11:15:48.514Z,69.99
2019-02-06T11:18:18.155Z,67.14
2019-02-06T11:20:48.142Z,67.36
2019-02-06T11:23:17.912Z,69.55
2019-02-06T11:25:47.575Z,69.13
2019-02-06T11:28:19.427Z,65.17
2019-02-06T11:30:49.201Z,64.54
2019-02-06T11:33:19.102Z,64.02
2019-02-06T11:35:49.093Z,59.94
2019-02-06T11:38:18.818Z,57.64
2019-02-06T11:40:48.543Z,60.01
2019-02-06T11:43:18.350Z,58.76
2019-02-06T11:45:48.135Z,58.08
2019-02-06T11:48:17.761Z,60.08
2019-02-06T11:50:47.423Z,60.08
2019-02-06T11:53:22.233Z,56.94
2019-02-06T11:55:52.157Z,54.21
2019-02-06T11:58:21.789Z,56.71
2019-02-06T12:01:13.061Z,55.72
2019-02-06T12:03:42.835Z,54.84
2019-02-06T12:06:12.857Z,51.36
2019-02-06T12:08:42.783Z,51.98
2019-02-06T12:11:12.369Z,50.48
2019-02-06T12:13:42.164Z,51.44
2019-02-06T12:16:11.790Z,48.49
2019-02-06T12:18:41.468Z,45.58
2019-02-06T12:21:11.648Z,43.87
2019-02-06T12:23:41.582Z,42.39
2019-02-06T12:26:11.265Z,40.79
2019-02-06T12:28:41.028Z,40.26
2019-02-06T12:31:10.690Z,46.76
2019-02-06T12:33:40.451Z,46.76
2019-02-06T12:36:10.510Z,47.34
2019-02-06T12:38:40.154Z,44.28
2019-02-06T12:41:09.753Z,42.80
2019-02-06T12:43:39.396Z,43.17
2019-02-06T12:46:09.042Z,47.47
2019-02-06T12:48:38.674Z,47.49
2019-02-06T12:51:08.457Z,47.75
2019-02-06T12:53:38.199Z,47.39
2019-02-06T12:56:07.625Z,47.95
2019-02-06T12:58:37.102Z,50.05
2019-02-06T13:01:06.687Z,49.28
2019-02-06T13:03:36.403Z,49.28
2019-02-06T13:06:06.197Z,47.07
2019-02-06T13:08:35.622Z,47.07
2019-02-06T13:11:05.073Z,46.93
2019-02-06T13:13:34.678Z,46.80
2019-02-06T13:16:04.120Z,46.80
2019-02-06T13:18:33.542Z,44.85
2019-02-06T13:21:02.969Z,44.44
2019-02-06T13:23:32.361Z,42.89
2019-02-06T13:26:01.886Z,40.65
2019-02-06T13:28:31.378Z,38.24
2019-02-06T13:31:01.049Z,39.76
2019-02-06T13:33:30.453Z,40.19
2019-02-06T13:35:59.882Z,41.88
2019-02-06T13:38:29.280Z,45.46
2019-02-06T13:40:58.725Z,42.42
2019-02-06T13:43:28.346Z,38.88
2019-02-06T13:45:57.754Z,37.99
2019-02-06T13:48:27.287Z,37.33
2019-02-06T13:50:56.674Z,36.63
2019-02-06T13:53:26.206Z,36.56
2019-02-06T13:55:55.845Z,34.68
2019-02-06T13:58:25.319Z,37.49
2019-02-06T14:00:54.989Z,40.82
2019-02-06T14:03:24.706Z,41.35
2019-02-06T14:05:54.214Z,40.62
2019-02-06T14:08:24.550Z,38.13
2019-02-06T14:11:00.316Z,37.10
2019-02-06T14:13:25.143Z,36.47
2019-02-06T14:15:54.616Z,39.50
2019-02-06T14:18:24.146Z,42.07
2019-02-06T14:20:54.827Z,40.10
2019-02-06T14:23:34.417Z,37.21
2019-02-06T14:26:26.271Z,41.85
2019-02-06T14:29:45.212Z,45.05
2019-02-06T14:32:54.821Z,42.67
2019-02-06T14:35:46.940Z,41.95
2019-02-06T14:38:51.831Z,46.20
2019-02-06T14:41:42.323Z,48.55
2019-02-06T14:44:36.620Z,49.22
2019-02-06T14:47:22.325Z,49.37
2019-02-06T14:49:57.599Z,49.76
2019-02-06T14:52:48.959Z,50.14
2019-02-06T14:55:52.801Z,49.44
2019-02-06T14:59:08.491Z,49.88
2019-02-06T15:01:59.860Z,49.78
2019-02-06T15:04:55.084Z,47.92
2019-02-06T15:07:41.742Z,49.86
2019-02-06T15:10:26.550Z,50.24
2019-02-06T15:13:38.960Z,49.85
2019-02-06T15:16:18.659Z,49.25
2019-02-06T15:19:19.538Z,49.20
2019-02-06T15:22:21.011Z,50.65
2019-02-06T15:25:24.222Z,51.79
2019-02-06T15:28:19.520Z,52.49
2019-02-06T15:31:24.750Z,52.88
2019-02-06T15:34:29.127Z,52.09
2019-02-06T15:37:48.753Z,51.77
2019-02-06T15:40:54.970Z,51.56
2019-02-06T15:44:07.724Z,50.98
2019-02-06T15:47:03.905Z,50.77
2019-02-06T15:50:05.220Z,50.51
2019-02-06T15:53:21.527Z,49.55
2019-02-06T15:56:15.006Z,48.68
2019-02-06T15:59:18.907Z,48.59
2019-02-06T16:02:44.729Z,49.15
2019-02-06T16:06:14.765Z,48.67
2019-02-06T16:09:40.476Z,48.64
2019-02-06T16:13:15.240Z,48.12
2019-02-06T16:16:10.220Z,49.03
2019-02-06T16:18:54.995Z,49.35
2019-02-06T16:21:39.307Z,48.61
2019-02-06T16:24:49.746Z,48.33
2019-02-06T16:28:09.257Z,48.77
2019-02-06T16:30:54.481Z,49.47
2019-02-06T16:34:09.060Z,50.55
2019-02-06T16:36:54.478Z,50.96
2019-02-06T16:40:14.483Z,51.94
2019-02-06T16:43:23.714Z,52.41
2019-02-06T16:46:25.375Z,51.99
2019-02-06T16:49:12.085Z,52.18
2019-02-06T16:52:15.049Z,52.31
2019-02-06T16:55:15.301Z,51.96
2019-02-06T16:58:19.219Z,52.08
2019-02-06T17:01:19.849Z,52.28
2019-02-06T17:04:01.042Z,52.96
2019-02-06T17:07:14.573Z,53.63
2019-02-06T17:09:59.966Z,52.55
2019-02-06T17:12:58.015Z,52.55
2019-02-06T17:16:00.322Z,52.03
2019-02-06T17:19:06.227Z,53.44
2019-02-06T17:22:06.560Z,54.08
2019-02-06T17:25:17.401Z,54.25
2019-02-06T17:28:28.539Z,54.25
2019-02-06T17:31:34.293Z,54.77
2019-02-06T17:34:35.347Z,57.51
2019-02-06T17:37:39.656Z,57.51
2019-02-06T17:40:58.314Z,57.12
2019-02-06T17:44:12.551Z,55.77
2019-02-06T17:46:54.982Z,55.77
2019-02-06T17:49:49.241Z,55.70
2019-02-06T17:52:57.036Z,55.75
2019-02-06T17:55:27.008Z,55.52
2019-02-06T17:57:58.450Z,57.77
2019-02-06T18:00:49.590Z,57.53
2019-02-06T18:03:19.337Z,57.53
2019-02-06T18:05:49.706Z,56.96
2019-02-06T18:08:19.493Z,58.15
2019-02-06T18:10:50.115Z,58.15
2019-02-06T18:13:19.917Z,60.70
2019-02-06T18:15:49.573Z,60.70
2019-02-06T18:18:20.478Z,60.28
2019-02-06T18:20:50.612Z,58.97
2019-02-06T18:23:20.266Z,58.97
2019-02-06T18:25:49.753Z,58.42
2019-02-06T18:28:19.435Z,57.37
2019-02-06T18:30:49.063Z,56.67
2019-02-06T18:33:19.192Z,56.67
2019-02-06T18:35:49.503Z,56.39
2019-02-06T18:38:19.290Z,57.67
2019-02-06T18:40:49.346Z,57.94
2019-02-06T18:43:19.227Z,58.63
2019-02-06T18:45:49.007Z,58.64
2019-02-06T18:48:20.517Z,58.39
2019-02-06T18:50:50.176Z,57.87
2019-02-06T18:53:19.945Z,57.58
2019-02-06T18:55:51.310Z,57.35
2019-02-06T18:58:21.005Z,56.60
2019-02-06T19:00:50.450Z,56.69
2019-02-06T19:03:22.845Z,57.24
2019-02-06T19:05:52.447Z,57.59
2019-02-06T19:08:22.213Z,57.59
2019-02-06T19:10:52.160Z,57.38
2019-02-06T19:13:21.934Z,57.04
2019-02-06T19:15:56.483Z,56.82
2019-02-06T19:18:23.620Z,56.62
2019-02-06T19:20:53.542Z,56.63
2019-02-06T19:23:23.393Z,56.55
2019-02-06T19:25:53.356Z,56.60
2019-02-06T19:28:22.935Z,56.58
2019-02-06T19:30:55.519Z,56.49
2019-02-06T19:33:24.932Z,56.47
2019-02-06T19:35:54.391Z,56.47
2019-02-06T19:38:24.102Z,56.50
2019-02-06T19:40:54.140Z,56.73
2019-02-06T19:43:24.611Z,56.79
2019-02-06T19:45:54.360Z,56.85
2019-02-06T19:48:24.050Z,57.97
2019-02-06T19:50:54.861Z,57.72
2019-02-06T19:53:24.668Z,57.72
2019-02-06T19:55:55.040Z,57.57
2019-02-06T19:58:25.202Z,57.53
2019-02-06T20:00:55.157Z,57.98
2019-02-06T20:03:24.994Z,58.08
2019-02-06T20:05:55.114Z,57.65
2019-02-06T20:08:25.280Z,58.46
2019-02-06T20:10:55.202Z,60.29
2019-02-06T20:13:25.168Z,61.09
2019-02-06T20:15:55.814Z,61.79
2019-02-06T20:18:25.625Z,61.71
2019-02-06T20:20:55.522Z,61.19
2019-02-06T20:23:25.258Z,60.64
2019-02-06T20:25:55.612Z,60.11
2019-02-06T20:28:25.577Z,59.65
2019-02-06T20:30:55.496Z,59.41
2019-02-06T20:33:25.366Z,59.08
2019-02-06T20:35:55.144Z,58.86
2019-02-06T20:38:24.981Z,58.80
2019-02-06T20:40:55.690Z,58.76
2019-02-06T20:43:25.610Z,58.71
2019-02-06T20:45:55.288Z,58.71
2019-02-06T20:48:25.291Z,58.82
2019-02-06T20:50:55.087Z,58.80
2019-02-06T20:53:24.767Z,58.57
2019-02-06T20:55:54.415Z,58.47
2019-02-06T20:58:24.147Z,58.55
2019-02-06T21:00:53.797Z,58.39
2019-02-06T21:03:23.864Z,58.45
2019-02-06T21:05:53.524Z,58.50
2019-02-06T21:08:23.201Z,58.47
2019-02-06T21:10:53.008Z,58.49
2019-02-06T21:13:32.553Z,58.45
2019-02-06T21:15:54.174Z,58.53
2019-02-06T21:18:24.412Z,58.58
2019-02-06T21:20:54.022Z,58.62
2019-02-06T21:23:23.716Z,58.71
2019-02-06T21:25:53.429Z,58.81
2019-02-06T21:28:23.378Z,58.85
2019-02-06T21:30:53.092Z,58.83
2019-02-06T21:33:24.005Z,58.85
2019-02-06T21:35:53.711Z,58.96
2019-02-06T21:38:23.206Z,58.87
2019-02-06T21:40:52.849Z,59.09
2019-02-06T21:43:22.613Z,59.09
2019-02-06T21:45:52.278Z,59.38
2019-02-06T21:48:22.503Z,59.37
2019-02-06T21:50:52.212Z,59.05
2019-02-06T21:53:21.975Z,59.13
2019-02-06T21:55:51.689Z,59.17
2019-02-06T21:58:21.372Z,59.00
2019-02-06T22:00:51.021Z,59.06
2019-02-06T22:03:20.654Z,59.23
2019-02-06T22:05:50.188Z,59.20
2019-02-06T22:08:19.930Z,59.26
2019-02-06T22:10:49.513Z,59.43
2019-02-06T22:13:19.186Z,59.48
2019-02-06T22:15:48.814Z,59.33
2019-02-06T22:18:18.382Z,59.31
2019-02-06T22:20:48.040Z,59.23
2019-02-06T22:23:17.618Z,59.20
2019-02-06T22:25:47.264Z,59.21
2019-02-06T22:28:16.937Z,59.59
2019-02-06T22:30:47.186Z,59.67
2019-02-06T22:33:17.738Z,59.40
2019-02-06T22:35:47.464Z,59.97
2019-02-06T22:38:17.129Z,60.01
2019-02-06T22:40:46.854Z,59.82
2019-02-06T22:43:16.597Z,59.61
2019-02-06T22:45:46.696Z,59.81
2019-02-06T22:48:16.749Z,60.18
2019-02-06T22:50:46.553Z,60.05
2019-02-06T22:53:16.074Z,59.76
2019-02-06T22:55:45.871Z,59.35
2019-02-06T22:58:15.527Z,59.06
2019-02-06T23:01:21.118Z,59.04
2019-02-06T23:06:19.474Z,58.92
2019-02-06T23:08:49.034Z,58.80
2019-02-06T23:11:18.707Z,59.08
2019-02-06T23:13:48.376Z,59.05
2019-02-06T23:16:18.136Z,58.99
2019-02-06T23:18:47.792Z,59.04
2019-02-06T23:21:17.860Z,59.04
2019-02-06T23:23:47.513Z,59.04
2019-02-06T23:26:17.048Z,58.93
2019-02-06T23:28:46.632Z,58.94
2019-02-06T23:31:16.291Z,59.03
2019-02-06T23:33:46.261Z,58.87
2019-02-06T23:36:16.211Z,59.23
2019-02-06T23:38:45.922Z,59.27
2019-02-06T23:41:15.651Z,59.27
2019-02-06T23:43:45.434Z,59.15
2019-02-06T23:46:15.053Z,59.11
2019-02-06T23:48:44.725Z,59.07
2019-02-06T23:51:14.392Z,59.05
2019-02-06T23:53:44.044Z,59.13
2019-02-06T23:56:13.695Z,59.00
2019-02-06T23:58:43.371Z,58.95
